sensor_id;sensor_type;location;lat;lon;timestamp;P1;P2;P0
58740;PMS7003;44512;53.046;18.604;2024-03-06T00:08:09;48;37;25
58740;PMS7003;44512;53.046;18.604;2024-03-06T00:18:37;47;36;24
58740;PMS7003;44512;53.046;18.604;2024-03-06T00:29:06;47;34;23
58740;PMS7003;44512;53.046;18.604;2024-03-06T00:39:34;48;35;24
58740;PMS7003;44512;53.046;18.604;2024-03-06T00:50:03;43;33;21
58740;PMS7003;44512;53.046;18.604;2024-03-06T01:00:31;38;33;22
58740;PMS7003;44512;53.046;18.604;2024-03-06T01:10:59;45;35;23
58740;PMS7003;44512;53.046;18.604;2024-03-06T01:21:28;38;33;22
58740;PMS7003;44512;53.046;18.604;2024-03-06T01:31:56;41;32;20
58740;PMS7003;44512;53.046;18.604;2024-03-06T01:42:25;44;32;20
58740;PMS7003;44512;53.046;18.604;2024-03-06T01:52:53;43;33;22
58740;PMS7003;44512;53.046;18.604;2024-03-06T02:03:22;40;34;22
58740;PMS7003;44512;53.046;18.604;2024-03-06T02:13:50;41;33;23
58740;PMS7003;44512;53.046;18.604;2024-03-06T02:24:18;44;32;21
58740;PMS7003;44512;53.046;18.604;2024-03-06T02:34:47;40;33;21
58740;PMS7003;44512;53.046;18.604;2024-03-06T02:45:16;44;32;22
58740;PMS7003;44512;53.046;18.604;2024-03-06T02:55:44;43;32;21
58740;PMS7003;44512;53.046;18.604;2024-03-06T03:06:12;40;31;19
58740;PMS7003;44512;53.046;18.604;2024-03-06T03:16:41;37;29;21
58740;PMS7003;44512;53.046;18.604;2024-03-06T03:27:09;40;34;23
58740;PMS7003;44512;53.046;18.604;2024-03-06T03:37:37;48;36;26
58740;PMS7003;44512;53.046;18.604;2024-03-06T03:48:06;50;41;26
58740;PMS7003;44512;53.046;18.604;2024-03-06T03:58:34;60;45;30
58740;PMS7003;44512;53.046;18.604;2024-03-06T04:09:03;56;41;28
58740;PMS7003;44512;53.046;18.604;2024-03-06T04:19:31;57;44;28
58740;PMS7003;44512;53.046;18.604;2024-03-06T04:29:59;69;49;32
58740;PMS7003;44512;53.046;18.604;2024-03-06T04:40:28;60;44;26
58740;PMS7003;44512;53.046;18.604;2024-03-06T04:50:56;68;51;33
58740;PMS7003;44512;53.046;18.604;2024-03-06T05:01:25;69;51;32
58740;PMS7003;44512;53.046;18.604;2024-03-06T05:11:53;73;52;32
58740;PMS7003;44512;53.046;18.604;2024-03-06T05:22:22;71;49;32
58740;PMS7003;44512;53.046;18.604;2024-03-06T05:32:50;69;51;31
58740;PMS7003;44512;53.046;18.604;2024-03-06T05:43:19;66;50;33
58740;PMS7003;44512;53.046;18.604;2024-03-06T05:53:47;63;48;31
58740;PMS7003;44512;53.046;18.604;2024-03-06T06:04:16;60;46;31
58740;PMS7003;44512;53.046;18.604;2024-03-06T06:14:44;54;43;28
58740;PMS7003;44512;53.046;18.604;2024-03-06T06:25:13;50;40;24
58740;PMS7003;44512;53.046;18.604;2024-03-06T06:35:41;51;36;25
58740;PMS7003;44512;53.046;18.604;2024-03-06T06:46:10;50;38;25
58740;PMS7003;44512;53.046;18.604;2024-03-06T06:56:38;49;37;25
58740;PMS7003;44512;53.046;18.604;2024-03-06T07:07:07;47;34;23
58740;PMS7003;44512;53.046;18.604;2024-03-06T07:17:35;44;35;23
58740;PMS7003;44512;53.046;18.604;2024-03-06T07:28:04;38;33;23
58740;PMS7003;44512;53.046;18.604;2024-03-06T07:38:32;43;35;23
58740;PMS7003;44512;53.046;18.604;2024-03-06T07:49:01;44;33;23
58740;PMS7003;44512;53.046;18.604;2024-03-06T07:59:29;42;31;20
58740;PMS7003;44512;53.046;18.604;2024-03-06T08:09:57;40;33;22
58740;PMS7003;44512;53.046;18.604;2024-03-06T08:20:26;33;27;20
58740;PMS7003;44512;53.046;18.604;2024-03-06T08:30:54;28;24;17
58740;PMS7003;44512;53.046;18.604;2024-03-06T08:41:23;35;28;20
58740;PMS7003;44512;53.046;18.604;2024-03-06T08:51:51;35;28;20
58740;PMS7003;44512;53.046;18.604;2024-03-06T09:02:20;37;28;20
58740;PMS7003;44512;53.046;18.604;2024-03-06T09:12:48;31;28;21
58740;PMS7003;44512;53.046;18.604;2024-03-06T09:23:16;31;28;19
58740;PMS7003;44512;53.046;18.604;2024-03-06T09:33:45;38;30;21
58740;PMS7003;44512;53.046;18.604;2024-03-06T09:44:13;32;30;20
58740;PMS7003;44512;53.046;18.604;2024-03-06T09:54:42;37;33;20
58740;PMS7003;44512;53.046;18.604;2024-03-06T10:15:39;36;30;21
58740;PMS7003;44512;53.046;18.604;2024-03-06T10:26:07;36;28;19
58740;PMS7003;44512;53.046;18.604;2024-03-06T10:36:35;37;30;21
58740;PMS7003;44512;53.046;18.604;2024-03-06T10:47:05;30;27;15
58740;PMS7003;44512;53.046;18.604;2024-03-06T10:57:32;30;25;18
58740;PMS7003;44512;53.046;18.604;2024-03-06T11:23:34;33;30;20
58740;PMS7003;44512;53.046;18.604;2024-03-06T11:34:03;31;27;19
58740;PMS7003;44512;53.046;18.604;2024-03-06T11:44:31;31;29;21
58740;PMS7003;44512;53.046;18.604;2024-03-06T11:55:00;30;25;18
58740;PMS7003;44512;53.046;18.604;2024-03-06T12:05:28;29;24;16
58740;PMS7003;44512;53.046;18.604;2024-03-06T12:15:56;31;26;18
58740;PMS7003;44512;53.046;18.604;2024-03-06T12:26:25;26;23;18
58740;PMS7003;44512;53.046;18.604;2024-03-06T12:36:53;29;23;17
58740;PMS7003;44512;53.046;18.604;2024-03-06T12:47:22;25;23;16
58740;PMS7003;44512;53.046;18.604;2024-03-06T12:57:50;22;19;14
58740;PMS7003;44512;53.046;18.604;2024-03-06T13:08:18;22;18;13
58740;PMS7003;44512;53.046;18.604;2024-03-06T13:18:47;18;15;11
58740;PMS7003;44512;53.046;18.604;2024-03-06T13:29:15;22;18;13
58740;PMS7003;44512;53.046;18.604;2024-03-06T13:39:44;16;14;10
58740;PMS7003;44512;53.046;18.604;2024-03-06T13:50:13;13;10;7
58740;PMS7003;44512;53.046;18.604;2024-03-06T14:00:40;13;12;9
58740;PMS7003;44512;53.046;18.604;2024-03-06T14:11:09;11;10;8
58740;PMS7003;44512;53.046;18.604;2024-03-06T14:21:37;13;10;8
58740;PMS7003;44512;53.046;18.604;2024-03-06T14:32:06;11;9;7
58740;PMS7003;44512;53.046;18.604;2024-03-06T14:42:34;10;9;7
58740;PMS7003;44512;53.046;18.604;2024-03-06T14:53:03;11;10;7
58740;PMS7003;44512;53.046;18.604;2024-03-06T15:03:31;15;10;7
58740;PMS7003;44512;53.046;18.604;2024-03-06T15:13:59;13;11;8
58740;PMS7003;44512;53.046;18.604;2024-03-06T15:24:28;12;10;8
58740;PMS7003;44512;53.046;18.604;2024-03-06T15:34:56;13;10;7
58740;PMS7003;44512;53.046;18.604;2024-03-06T15:45:24;12;9;7
58740;PMS7003;44512;53.046;18.604;2024-03-06T15:55:53;11;9;6
58740;PMS7003;44512;53.046;18.604;2024-03-06T16:06:23;15;10;8
58740;PMS7003;44512;53.046;18.604;2024-03-06T16:16:50;16;13;10
58740;PMS7003;44512;53.046;18.604;2024-03-06T16:27:21;12;9;7
58740;PMS7003;44512;53.046;18.604;2024-03-06T16:37:47;15;13;8
58740;PMS7003;44512;53.046;18.604;2024-03-06T16:48:15;18;12;8
58740;PMS7003;44512;53.046;18.604;2024-03-06T16:58:43;14;12;9
58740;PMS7003;44512;53.046;18.604;2024-03-06T17:09:12;14;13;9
58740;PMS7003;44512;53.046;18.604;2024-03-06T17:19:40;19;15;11
58740;PMS7003;44512;53.046;18.604;2024-03-06T17:30:09;18;14;11
58740;PMS7003;44512;53.046;18.604;2024-03-06T17:40:37;21;18;12
58740;PMS7003;44512;53.046;18.604;2024-03-06T17:51:05;23;20;14
58740;PMS7003;44512;53.046;18.604;2024-03-06T18:01:34;25;21;15
58740;PMS7003;44512;53.046;18.604;2024-03-06T18:12:02;20;16;12
58740;PMS7003;44512;53.046;18.604;2024-03-06T18:22:30;21;17;12
58740;PMS7003;44512;53.046;18.604;2024-03-06T18:32:59;17;15;11
58740;PMS7003;44512;53.046;18.604;2024-03-06T18:43:27;18;14;8
58740;PMS7003;44512;53.046;18.604;2024-03-06T18:53:56;20;16;12
58740;PMS7003;44512;53.046;18.604;2024-03-06T19:04:24;19;17;12
58740;PMS7003;44512;53.046;18.604;2024-03-06T19:14:52;19;15;12
58740;PMS7003;44512;53.046;18.604;2024-03-06T19:25:21;21;15;10
58740;PMS7003;44512;53.046;18.604;2024-03-06T19:35:49;19;15;11
58740;PMS7003;44512;53.046;18.604;2024-03-06T19:46:18;17;14;10
58740;PMS7003;44512;53.046;18.604;2024-03-06T19:56:49;19;16;12
58740;PMS7003;44512;53.046;18.604;2024-03-06T20:07:15;26;18;13
58740;PMS7003;44512;53.046;18.604;2024-03-06T20:17:43;27;19;15
58740;PMS7003;44512;53.046;18.604;2024-03-06T20:28:11;27;21;14
58740;PMS7003;44512;53.046;18.604;2024-03-06T20:38:40;27;20;16
58740;PMS7003;44512;53.046;18.604;2024-03-06T20:49:08;23;19;14
58740;PMS7003;44512;53.046;18.604;2024-03-06T20:59:37;22;19;15
58740;PMS7003;44512;53.046;18.604;2024-03-06T21:10:05;24;21;16
58740;PMS7003;44512;53.046;18.604;2024-03-06T21:20:34;25;21;15
58740;PMS7003;44512;53.046;18.604;2024-03-06T21:31:02;26;23;16
58740;PMS7003;44512;53.046;18.604;2024-03-06T21:41:31;28;22;17
58740;PMS7003;44512;53.046;18.604;2024-03-06T21:51:59;29;20;14
58740;PMS7003;44512;53.046;18.604;2024-03-06T22:02:27;30;23;16
58740;PMS7003;44512;53.046;18.604;2024-03-06T22:12:56;29;22;16
58740;PMS7003;44512;53.046;18.604;2024-03-06T22:23:26;34;25;18
58740;PMS7003;44512;53.046;18.604;2024-03-06T22:33:53;28;24;16
58740;PMS7003;44512;53.046;18.604;2024-03-06T22:44:21;24;22;16
58740;PMS7003;44512;53.046;18.604;2024-03-06T22:54:50;27;25;16
58740;PMS7003;44512;53.046;18.604;2024-03-06T23:05:18;30;26;17
58740;PMS7003;44512;53.046;18.604;2024-03-06T23:15:46;32;24;18
58740;PMS7003;44512;53.046;18.604;2024-03-06T23:26:15;31;24;18
58740;PMS7003;44512;53.046;18.604;2024-03-06T23:36:43;36;31;22
58740;PMS7003;44512;53.046;18.604;2024-03-06T23:47:11;28;24;16
58740;PMS7003;44512;53.046;18.604;2024-03-06T23:57:40;39;28;20
